Time;durP1;ratioP1;P1;durP2;ratioP2;P2;SDS_P1;SDS_P2;PMS_P1;PMS_P2;Temp;Humidity;BMP_temperature;BMP_pressure;BME280_temperature;BME280_humidity;BME280_pressure;Samples;Min_cycle;Max_cycle;Signal;HPM_P1;HPM_P2
2022/12/30 00:01:18;;;;;;;;;;;;;;;8.94;84.64;100203.16;7359930;19;19922;-67
2022/12/30 00:03:45;;;;;;;;;;;;;;;8.89;84.98;100195.75;7358241;19;19915;-67
2022/12/30 00:06:16;;;;;;;;;;;;;;;8.87;84.99;100200.38;7354317;19;20192;-67
2022/12/30 00:08:47;;;;;;;;;;;;;;;8.88;85.19;100190.69;7357097;19;20158;-67
2022/12/30 00:11:21;;;;;;;;;;;;;;;8.88;84.99;100195.94;7358608;19;20524;-68
2022/12/30 00:33:31;;;;;;;;;;;;;;;8.89;86.15;100179.19;7356093;19;19927;-67
2022/12/30 00:35:58;;;;;;;;;;;;;;;8.88;86.31;100181.03;7354190;19;19922;-67
2022/12/30 00:38:25;;;;;;;;;;;;;;;8.89;86.03;100187.06;7352396;19;20527;-68
2022/12/30 00:43:37;;;;;;;;;;;;;;;8.89;85.71;100171.34;7357488;19;19929;-67
2022/12/30 00:46:04;;;;;;;;;;;;;;;8.90;85.45;100168.56;7356266;19;20352;-67
2022/12/30 00:56:44;;;;;;;;;;;;;;;8.84;85.95;100160.50;7358156;19;20292;-67
2022/12/30 00:59:12;;;;;;;;;;;;;;;8.82;86.47;100151.97;7356523;19;19922;-67
2022/12/30 01:01:38;;;;;;;;;;;;;;;8.78;86.76;100151.47;7356939;19;19934;-66
2022/12/30 01:04:05;;;;;;;;;;;;;;;8.76;86.96;100156.06;7353589;19;19931;-67
2022/12/30 01:06:32;;;;;;;;;;;;;;;8.75;86.86;100146.53;7351133;19;20734;-67
2022/12/30 01:08:58;;;;;;;;;;;;;;;8.71;86.99;100145.22;7355030;19;19929;-67
2022/12/30 01:11:25;;;;;;;;;;;;;;;8.71;87.47;100142.59;7355649;19;20526;-66
2022/12/30 01:13:52;;;;;;;;;;;;;;;8.68;87.53;100127.19;7355662;19;19927;-66
2022/12/30 01:16:20;;;;;;;;;;;;;;;8.66;87.45;100128.31;7354906;19;19932;-67
2022/12/30 01:18:47;;;;;;;;;;;;;;;8.62;87.89;100127.81;7351776;19;20475;-67
2022/12/30 01:21:14;;;;;;;;;;;;;;;8.61;87.65;100131.41;7353682;19;20373;-67
2022/12/30 01:23:40;;;;;;;;;;;;;;;8.58;87.80;100123.88;7351997;19;19922;-67
2022/12/30 01:26:07;;;;;;;;;;;;;;;8.53;87.74;100121.69;7357123;19;20345;-68
2022/12/30 01:28:35;;;;;;;;;;;;;;;8.54;88.10;100119.88;7354444;19;20264;-67
2022/12/30 01:31:07;;;;;;;;;;;;;;;8.54;88.71;100117.28;7354510;19;20393;-68
2022/12/30 01:33:34;;;;;;;;;;;;;;;8.53;88.58;100107.78;7353297;19;20837;-67
2022/12/30 01:36:01;;;;;;;;;;;;;;;8.51;88.68;100100.06;7351972;19;21083;-67
2022/12/30 01:38:29;;;;;;;;;;;;;;;8.51;88.60;100086.97;7351661;19;20092;-67
2022/12/30 01:40:56;;;;;;;;;;;;;;;8.50;88.74;100082.69;7355394;19;19978;-67
2022/12/30 01:43:43;;;;;;;;;;;;;;;8.50;89.03;100085.31;7354840;19;19919;-67
2022/12/30 01:46:12;;;;;;;;;;;;;;;8.49;88.84;100072.34;7352344;19;19954;-67
2022/12/30 01:48:39;;;;;;;;;;;;;;;8.50;89.22;100074.00;7356398;19;20224;-66
2022/12/30 01:51:09;;;;;;;;;;;;;;;8.52;89.43;100069.44;7351778;19;20492;-67
2022/12/30 01:53:37;;;;;;;;;;;;;;;8.54;89.80;100077.94;7351482;19;19929;-67
2022/12/30 01:56:10;;;;;;;;;;;;;;;8.55;90.24;100075.16;7353330;19;19962;-67
2022/12/30 01:58:59;;;;;;;;;;;;;;;8.58;90.39;100077.47;7354148;19;20391;-67
2022/12/30 02:01:25;;;;;;;;;;;;;;;8.64;90.80;100078.63;7353109;19;19918;-67
2022/12/30 02:04:00;;;;;;;;;;;;;;;8.67;90.92;100062.59;7354850;19;19927;-66
2022/12/30 02:06:32;;;;;;;;;;;;;;;8.70;91.05;100067.50;7350039;19;20557;-67
2022/12/30 02:08:59;;;;;;;;;;;;;;;8.72;91.59;100064.75;7352373;19;19943;-67
2022/12/30 02:11:26;;;;;;;;;;;;;;;8.74;91.40;100060.97;7354042;19;19922;-67
2022/12/30 02:13:54;;;;;;;;;;;;;;;8.78;91.63;100058.88;7353868;19;19919;-68
2022/12/30 02:16:53;;;;;;;;;;;;;;;8.81;91.50;100059.34;7353513;19;20392;-67
2022/12/30 02:19:39;;;;;;;;;;;;;;;8.87;91.56;100052.66;7352916;19;19996;-67
2022/12/30 02:22:05;;;;;;;;;;;;;;;8.90;91.79;100058.38;7348078;19;19931;-67
2022/12/30 02:24:50;;;;;;;;;;;;;;;8.94;92.24;100049.19;7355449;19;20195;-66
2022/12/30 02:27:32;;;;;;;;;;;;;;;8.99;92.21;100054.78;7354606;19;19931;-67
2022/12/30 02:30:04;;;;;;;;;;;;;;;9.06;92.39;100057.59;7351475;19;20184;-68
2022/12/30 02:32:40;;;;;;;;;;;;;;;9.12;92.85;100062.19;7353204;19;20361;-67
2022/12/30 02:35:30;;;;;;;;;;;;;;;9.19;93.14;100065.81;7354208;19;19919;-67
2022/12/30 02:38:14;;;;;;;;;;;;;;;9.27;93.25;100063.19;7352044;19;20510;-67
2022/12/30 02:46:33;;;;;;;;;;;;;;;9.48;93.83;100051.38;7352649;19;19922;-66
2022/12/30 02:49:01;;;;;;;;;;;;;;;9.53;94.03;100043.81;7350810;19;20850;-67
2022/12/30 02:54:14;;;;;;;;;;;;;;;9.59;94.33;100033.50;7349951;19;20427;-66
2022/12/30 02:56:51;;;;;;;;;;;;;;;9.62;94.39;100025.25;7350019;19;19919;-67
2022/12/30 03:05:46;;;;;;;;;;;;;;;9.71;93.68;99995.38;7347688;19;19926;-66
2022/12/30 03:08:33;;;;;;;;;;;;;;;9.73;94.01;99987.31;7350120;19;20497;-67
2022/12/30 03:11:12;;;;;;;;;;;;;;;9.73;93.75;99980.28;7349083;19;19923;-67
2022/12/30 03:13:42;;;;;;;;;;;;;;;9.72;93.89;99965.50;7356151;19;19957;-66
2022/12/30 03:16:29;;;;;;;;;;;;;;;9.74;93.95;99968.78;7358232;19;19919;-68
2022/12/30 03:18:57;;;;;;;;;;;;;;;9.74;93.94;99952.19;7356890;19;19945;-67
2022/12/30 03:21:26;;;;;;;;;;;;;;;9.76;93.85;99944.94;7356199;19;19961;-68
2022/12/30 03:27:04;;;;;;;;;;;;;;;9.82;94.24;99928.50;7360116;19;20840;-67
2022/12/30 03:29:34;;;;;;;;;;;;;;;9.84;94.19;99914.22;7359597;19;19999;-67
2022/12/30 03:32:01;;;;;;;;;;;;;;;9.84;93.30;99913.41;7357550;19;20268;-66
2022/12/30 03:34:28;;;;;;;;;;;;;;;9.85;93.29;99913.22;7358071;19;21863;-67
2022/12/30 03:37:15;;;;;;;;;;;;;;;9.85;92.79;99904.53;7355521;19;19918;-66
2022/12/30 03:39:45;;;;;;;;;;;;;;;9.86;92.80;99895.66;7356541;19;19923;-67
2022/12/30 03:42:14;;;;;;;;;;;;;;;9.86;92.67;99895.66;7355695;19;19929;-67
2022/12/30 03:44:42;;;;;;;;;;;;;;;9.85;91.91;99892.19;7357643;19;20240;-67
2022/12/30 03:47:13;;;;;;;;;;;;;;;9.87;91.93;99892.03;7356060;19;20191;-67
2022/12/30 03:49:42;;;;;;;;;;;;;;;9.86;92.08;99885.97;7358467;19;19967;-67
2022/12/30 03:52:10;;;;;;;;;;;;;;;9.89;91.92;99879.56;7353838;19;19926;-66
2022/12/30 03:54:37;;;;;;;;;;;;;;;9.91;91.95;99879.38;7357823;19;19947;-67
2022/12/30 03:57:03;;;;;;;;;;;;;;;9.91;91.93;99874.13;7356583;19;19923;-67
2022/12/30 03:59:30;;;;;;;;;;;;;;;9.91;91.23;99871.47;7355901;19;19933;-68
2022/12/30 04:01:57;;;;;;;;;;;;;;;9.90;90.75;99848.84;7358718;19;20401;-68
2022/12/30 04:04:23;;;;;;;;;;;;;;;9.91;91.15;99851.28;7357464;19;19923;-67
2022/12/30 04:06:50;;;;;;;;;;;;;;;9.89;90.92;99840.16;7351665;19;19969;-66
2022/12/30 04:09:17;;;;;;;;;;;;;;;9.91;90.91;99837.34;7355629;19;19930;-68
2022/12/30 04:11:44;;;;;;;;;;;;;;;9.93;90.62;99832.72;7353265;19;19947;-66
2022/12/30 04:14:10;;;;;;;;;;;;;;;9.96;90.93;99825.31;7354522;19;21309;-68
2022/12/30 04:16:37;;;;;;;;;;;;;;;10.00;91.41;99820.56;7358907;19;19922;-67
2022/12/30 04:19:04;;;;;;;;;;;;;;;10.04;90.70;99816.56;7354980;19;19926;-67
2022/12/30 04:21:31;;;;;;;;;;;;;;;10.04;90.52;99816.56;7352206;19;20108;-67
2022/12/30 04:23:57;;;;;;;;;;;;;;;10.07;90.40;99805.69;7355738;19;19957;-67
2022/12/30 04:26:24;;;;;;;;;;;;;;;10.07;89.68;99803.06;7357528;19;19919;-67
2022/12/30 04:28:51;;;;;;;;;;;;;;;10.10;89.62;99794.84;7355546;19;20006;-67
2022/12/30 04:31:18;;;;;;;;;;;;;;;10.09;89.24;99783.53;7358060;19;20416;-67
2022/12/30 04:33:47;;;;;;;;;;;;;;;10.09;88.87;99774.81;7354802;19;19933;-66
2022/12/30 04:36:14;;;;;;;;;;;;;;;10.08;88.94;99768.75;7352517;19;20023;-67
2022/12/30 04:38:41;;;;;;;;;;;;;;;10.07;88.45;99759.22;7355044;19;19923;-68
2022/12/30 04:41:08;;;;;;;;;;;;;;;10.09;88.69;99753.78;7354137;19;19915;-67
2022/12/30 04:43:34;;;;;;;;;;;;;;;10.09;88.73;99740.66;7358861;19;19938;-67
2022/12/30 04:46:01;;;;;;;;;;;;;;;10.08;88.59;99739.00;7359212;19;19950;-68
2022/12/30 04:48:28;;;;;;;;;;;;;;;10.09;88.93;99727.50;7358331;19;20406;-68
2022/12/30 04:50:54;;;;;;;;;;;;;;;10.10;89.29;99723.91;7352983;19;19926;-67
2022/12/30 04:53:21;;;;;;;;;;;;;;;10.10;89.26;99708.94;7354194;19;19930;-67
2022/12/30 04:55:52;;;;;;;;;;;;;;;10.13;89.00;99705.13;7354122;19;19931;-67
2022/12/30 04:58:19;;;;;;;;;;;;;;;10.14;88.96;99697.09;7355374;19;20544;-67
2022/12/30 05:00:46;;;;;;;;;;;;;;;10.17;89.36;99688.84;7352804;19;19944;-67
2022/12/30 05:03:13;;;;;;;;;;;;;;;10.19;89.10;99680.81;7353307;19;19926;-68
2022/12/30 05:05:40;;;;;;;;;;;;;;;10.21;89.05;99676.16;7351411;19;19953;-67
2022/12/30 05:08:07;;;;;;;;;;;;;;;10.22;88.96;99670.75;7354081;19;20304;-67
2022/12/30 05:10:35;;;;;;;;;;;;;;;10.23;88.72;99672.38;7355212;19;19923;-67
2022/12/30 05:13:02;;;;;;;;;;;;;;;10.28;89.19;99656.88;7357501;19;19923;-68
2022/12/30 05:15:29;;;;;;;;;;;;;;;10.32;88.47;99646.00;7353409;19;19918;-68
2022/12/30 05:17:56;;;;;;;;;;;;;;;10.33;88.76;99631.84;7355389;19;20267;-67
2022/12/30 05:20:23;;;;;;;;;;;;;;;10.35;88.75;99630.69;7352441;19;20464;-68
2022/12/30 05:22:51;;;;;;;;;;;;;;;10.37;88.09;99630.50;7355512;19;19955;-67
2022/12/30 05:27:53;;;;;;;;;;;;;;;10.40;88.04;99623.09;7353653;19;19930;-67
2022/12/30 05:30:20;;;;;;;;;;;;;;;10.41;88.10;99605.50;7352504;19;19923;-69
2022/12/30 05:32:47;;;;;;;;;;;;;;;10.41;88.45;99613.38;7351955;19;20233;-68
2022/12/30 05:35:14;;;;;;;;;;;;;;;10.42;88.25;99601.84;7347456;19;20413;-68
2022/12/30 05:37:40;;;;;;;;;;;;;;;10.43;88.78;99583.25;7354099;19;19933;-67
2022/12/30 05:40:08;;;;;;;;;;;;;;;10.45;88.80;99578.66;7350858;19;19927;-67
2022/12/30 05:42:35;;;;;;;;;;;;;;;10.46;88.19;99564.50;7354270;19;19923;-68
2022/12/30 05:45:02;;;;;;;;;;;;;;;10.47;88.05;99573.19;7354533;19;19930;-68
2022/12/30 05:47:28;;;;;;;;;;;;;;;10.48;87.91;99559.88;7352928;19;19926;-66
2022/12/30 05:49:55;;;;;;;;;;;;;;;10.51;88.11;99545.56;7352353;19;20510;-66
2022/12/30 05:52:22;;;;;;;;;;;;;;;10.50;87.94;99547.34;7353802;19;19915;-68
2022/12/30 05:54:49;;;;;;;;;;;;;;;10.51;88.16;99548.19;7353248;19;19930;-67
2022/12/30 05:57:16;;;;;;;;;;;;;;;10.54;87.91;99538.09;7352940;19;19926;-67
2022/12/30 05:59:43;;;;;;;;;;;;;;;10.55;87.80;99518.69;7353637;19;19935;-67
2022/12/30 06:02:09;;;;;;;;;;;;;;;10.57;87.78;99515.84;7354208;19;21317;-67
2022/12/30 06:04:36;;;;;;;;;;;;;;;10.58;87.31;99520.13;7352991;19;19922;-67
2022/12/30 06:07:03;;;;;;;;;;;;;;;10.60;87.56;99500.53;7347288;19;19914;-67
2022/12/30 06:09:30;;;;;;;;;;;;;;;10.62;87.39;99501.16;7353209;19;19922;-67
2022/12/30 06:11:56;;;;;;;;;;;;;;;10.62;87.47;99490.63;7353545;19;19942;-66
2022/12/30 06:14:23;;;;;;;;;;;;;;;10.62;87.52;99474.84;7353002;19;20064;-67
2022/12/30 06:16:50;;;;;;;;;;;;;;;10.64;87.63;99472.03;7353822;19;19926;-67
2022/12/30 06:19:16;;;;;;;;;;;;;;;10.67;87.57;99456.69;7353150;19;19914;-67
2022/12/30 06:21:43;;;;;;;;;;;;;;;10.67;88.09;99446.16;7349217;19;19946;-67
2022/12/30 06:24:10;;;;;;;;;;;;;;;10.69;88.09;99446.81;7352941;19;19927;-67
2022/12/30 06:26:36;;;;;;;;;;;;;;;10.68;88.18;99431.19;7351676;19;19960;-67
2022/12/30 06:29:03;;;;;;;;;;;;;;;10.68;88.02;99426.75;7352903;19;19915;-68
2022/12/30 06:31:30;;;;;;;;;;;;;;;10.70;88.16;99421.31;7352389;19;20199;-67
2022/12/30 06:33:57;;;;;;;;;;;;;;;10.72;88.68;99416.66;7352275;19;19922;-67
2022/12/30 06:36:24;;;;;;;;;;;;;;;10.73;88.73;99402.53;7348041;19;19919;-67
2022/12/30 06:38:50;;;;;;;;;;;;;;;10.77;89.10;99400.34;7351939;19;19927;-67
2022/12/30 06:41:17;;;;;;;;;;;;;;;10.80;89.25;99387.63;7350112;19;19931;-67
2022/12/30 06:43:44;;;;;;;;;;;;;;;10.83;90.35;99395.13;7352891;19;20317;-67
2022/12/30 06:46:11;;;;;;;;;;;;;;;10.87;91.10;99393.72;7355350;19;20304;-66
2022/12/30 06:48:37;;;;;;;;;;;;;;;10.88;90.31;99384.00;7358954;19;19927;-66
2022/12/30 06:51:04;;;;;;;;;;;;;;;10.91;90.01;99375.75;7356246;19;20702;-67
2022/12/30 06:53:31;;;;;;;;;;;;;;;10.94;90.25;99385.88;7358491;19;20458;-67
2022/12/30 06:55:58;;;;;;;;;;;;;;;10.97;90.42;99378.41;7357863;19;19964;-68
2022/12/30 06:58:25;;;;;;;;;;;;;;;11.00;90.06;99366.72;7357975;19;19926;-67
2022/12/30 07:00:51;;;;;;;;;;;;;;;11.02;90.29;99367.34;7356073;19;20580;-68
2022/12/30 07:03:18;;;;;;;;;;;;;;;11.06;90.72;99361.50;7357946;19;20148;-67
2022/12/30 07:05:45;;;;;;;;;;;;;;;11.11;90.96;99359.09;7354413;19;20355;-67
2022/12/30 07:08:11;;;;;;;;;;;;;;;11.11;89.88;99343.31;7358719;19;19937;-67
2022/12/30 07:10:38;;;;;;;;;;;;;;;11.13;89.55;99346.53;7359355;19;19953;-67
2022/12/30 07:13:05;;;;;;;;;;;;;;;11.15;89.50;99339.28;7358861;19;19926;-67
2022/12/30 07:15:32;;;;;;;;;;;;;;;11.22;89.54;99338.50;7357408;19;20276;-66
2022/12/30 07:17:59;;;;;;;;;;;;;;;11.24;89.52;99326.78;7358362;19;19941;-68
2022/12/30 07:20:25;;;;;;;;;;;;;;;11.23;88.98;99332.22;7354594;19;19923;-68
2022/12/30 07:22:52;;;;;;;;;;;;;;;11.23;88.62;99308.53;7358115;19;19947;-67
2022/12/30 07:25:24;;;;;;;;;;;;;;;11.21;88.63;99315.81;7358190;19;21552;-67
2022/12/30 07:27:56;;;;;;;;;;;;;;;11.24;88.78;99305.72;7360455;19;20178;-67
2022/12/30 07:30:22;;;;;;;;;;;;;;;11.28;89.24;99306.13;7356639;19;20351;-67
2022/12/30 07:32:49;;;;;;;;;;;;;;;11.27;88.76;99304.53;7357399;19;19926;-67
2022/12/30 07:35:16;;;;;;;;;;;;;;;11.25;88.25;99288.91;7357503;19;19936;-67
2022/12/30 07:37:43;;;;;;;;;;;;;;;11.27;88.45;99284.28;7357870;19;20494;-68
2022/12/30 07:40:10;;;;;;;;;;;;;;;11.29;88.76;99289.31;7358636;19;19948;-67
2022/12/30 07:42:36;;;;;;;;;;;;;;;11.30;88.81;99259.34;7361872;19;20329;-68
2022/12/30 07:45:03;;;;;;;;;;;;;;;11.32;88.79;99268.69;7361219;19;20349;-67
2022/12/30 07:47:32;;;;;;;;;;;;;;;11.31;88.16;99250.44;7358209;19;19923;-67
2022/12/30 07:49:59;;;;;;;;;;;;;;;11.32;88.84;99226.56;7355330;19;19954;-69
2022/12/30 07:52:26;;;;;;;;;;;;;;;11.34;88.66;99232.44;7354295;19;19926;-67
2022/12/30 07:54:53;;;;;;;;;;;;;;;11.36;88.64;99225.16;7354813;19;19987;-68
2022/12/30 07:57:20;;;;;;;;;;;;;;;11.42;89.14;99226.19;7353864;19;20975;-67
2022/12/30 07:59:46;;;;;;;;;;;;;;;11.42;89.13;99210.41;7360248;19;19931;-67
2022/12/30 08:02:13;;;;;;;;;;;;;;;11.44;89.24;99211.81;7356289;19;20266;-66
2022/12/30 08:04:40;;;;;;;;;;;;;;;11.44;89.69;99208.34;7355985;19;21627;-67
2022/12/30 08:07:19;;;;;;;;;;;;;;;11.42;89.87;99200.66;7354295;19;19918;-67
2022/12/30 08:09:45;;;;;;;;;;;;;;;11.40;90.60;99193.97;7356653;19;19938;-68
2022/12/30 08:12:12;;;;;;;;;;;;;;;11.37;91.00;99175.94;7356518;19;20337;-67
2022/12/30 08:14:39;;;;;;;;;;;;;;;11.34;91.40;99160.53;7357038;19;20333;-69
2022/12/30 08:17:05;;;;;;;;;;;;;;;11.33;91.91;99151.00;7357350;19;19926;-69
2022/12/30 08:19:32;;;;;;;;;;;;;;;11.31;92.90;99145.94;7357753;19;19922;-68
2022/12/30 08:21:59;;;;;;;;;;;;;;;11.30;93.37;99138.25;7351821;19;20268;-68
2022/12/30 08:24:26;;;;;;;;;;;;;;;11.30;93.49;99130.34;7355801;19;19919;-67
2022/12/30 08:26:52;;;;;;;;;;;;;;;11.26;94.07;99129.94;7355174;19;20325;-67
2022/12/30 08:29:19;;;;;;;;;;;;;;;11.25;94.06;99120.41;7357737;19;19919;-68
2022/12/30 08:31:49;;;;;;;;;;;;;;;11.25;94.58;99106.44;7357443;19;19929;-67
2022/12/30 08:34:17;;;;;;;;;;;;;;;11.22;95.03;99086.59;7353860;19;20551;-67
2022/12/30 08:36:44;;;;;;;;;;;;;;;11.19;95.09;99089.63;7352133;19;19922;-67
2022/12/30 08:39:11;;;;;;;;;;;;;;;11.15;94.94;99077.88;7355342;19;20305;-67
2022/12/30 08:41:39;;;;;;;;;;;;;;;11.12;95.61;99067.75;7355821;19;19940;-67
2022/12/30 08:44:08;;;;;;;;;;;;;;;11.12;96.06;99052.75;7357798;19;19923;-67
2022/12/30 08:46:36;;;;;;;;;;;;;;;11.11;96.00;99048.50;7355341;19;19926;-68
2022/12/30 08:49:03;;;;;;;;;;;;;;;11.10;96.14;99043.44;7356454;19;19914;-67
2022/12/30 08:51:30;;;;;;;;;;;;;;;11.10;96.67;99027.66;7353072;19;19938;-68
2022/12/30 08:53:58;;;;;;;;;;;;;;;11.08;97.15;99022.56;7356148;19;19947;-67
2022/12/30 08:56:27;;;;;;;;;;;;;;;11.07;97.01;98996.47;7353755;19;20044;-67
2022/12/30 08:58:54;;;;;;;;;;;;;;;11.06;96.75;98990.41;7353721;19;19919;-66
2022/12/30 09:01:24;;;;;;;;;;;;;;;11.06;96.99;98986.97;7355240;19;19926;-66
2022/12/30 09:03:52;;;;;;;;;;;;;;;11.05;96.82;98970.34;7353947;19;19948;-67
2022/12/30 09:06:19;;;;;;;;;;;;;;;11.06;97.37;98963.28;7353617;19;19923;-67
2022/12/30 09:08:47;;;;;;;;;;;;;;;11.04;97.08;98960.03;7353348;19;19927;-68
2022/12/30 09:11:16;;;;;;;;;;;;;;;11.03;97.19;98956.56;7356055;19;20991;-67
2022/12/30 09:13:42;;;;;;;;;;;;;;;11.04;97.22;98937.16;7355612;19;19915;-66
2022/12/30 09:16:11;;;;;;;;;;;;;;;11.01;97.19;98931.50;7353706;19;19923;-67
2022/12/30 09:18:37;;;;;;;;;;;;;;;11.01;97.45;98920.97;7356325;19;19919;-67
2022/12/30 09:21:04;;;;;;;;;;;;;;;10.99;97.28;98910.63;7350971;19;19986;-67
2022/12/30 09:23:31;;;;;;;;;;;;;;;11.00;97.42;98919.34;7352294;19;20264;-67
2022/12/30 09:25:58;;;;;;;;;;;;;;;10.98;97.77;98906.38;7355526;19;19927;-69
2022/12/30 09:28:26;;;;;;;;;;;;;;;10.97;97.60;98896.84;7354452;19;19958;-68
2022/12/30 09:30:52;;;;;;;;;;;;;;;10.99;97.73;98883.50;7353019;19;20474;-67
2022/12/30 09:33:19;;;;;;;;;;;;;;;10.99;97.73;98862.44;7354139;19;19931;-67
2022/12/30 09:35:46;;;;;;;;;;;;;;;10.94;97.94;98834.13;7329720;19;19968;-70
2022/12/30 09:38:13;;;;;;;;;;;;;;;10.93;97.67;98821.16;7343579;19;20470;-66
2022/12/30 09:40:43;;;;;;;;;;;;;;;10.91;97.42;98820.56;7345675;19;19926;-66
2022/12/30 09:43:20;;;;;;;;;;;;;;;10.92;97.49;98809.81;7348712;19;19922;-67
2022/12/30 09:45:49;;;;;;;;;;;;;;;10.96;98.04;98807.63;7352284;19;19919;-67
2022/12/30 09:48:20;;;;;;;;;;;;;;;10.94;97.75;98788.59;7350573;19;20355;-67
2022/12/30 09:50:54;;;;;;;;;;;;;;;10.96;98.04;98790.00;7350217;19;19922;-67
2022/12/30 09:53:21;;;;;;;;;;;;;;;10.97;98.46;98775.81;7351314;19;19918;-67
2022/12/30 09:56:00;;;;;;;;;;;;;;;10.98;98.49;98763.47;7353413;19;19990;-66
2022/12/30 09:58:29;;;;;;;;;;;;;;;11.01;98.68;98761.25;7354187;19;20428;-67
2022/12/30 10:00:59;;;;;;;;;;;;;;;11.00;98.47;98746.47;7352155;19;19930;-67
2022/12/30 10:03:27;;;;;;;;;;;;;;;11.01;98.81;98740.22;7354460;19;19930;-67
2022/12/30 10:06:15;;;;;;;;;;;;;;;11.02;98.66;98738.38;7347678;19;19915;-66
2022/12/30 10:08:52;;;;;;;;;;;;;;;11.04;99.09;98736.34;7353045;19;20404;-67
2022/12/30 10:11:28;;;;;;;;;;;;;;;11.03;99.34;98727.63;7353228;19;20884;-66
2022/12/30 10:14:04;;;;;;;;;;;;;;;11.05;99.67;98720.34;7354246;19;21525;-67
2022/12/30 10:16:40;;;;;;;;;;;;;;;11.10;99.78;98699.47;7355633;19;20235;-67
2022/12/30 10:19:06;;;;;;;;;;;;;;;11.11;99.92;98705.56;7353410;19;20040;-67
2022/12/30 10:21:43;;;;;;;;;;;;;;;11.05;99.94;98704.56;7353512;19;19927;-68
2022/12/30 10:24:11;;;;;;;;;;;;;;;11.08;100.00;98684.91;7359617;19;19919;-68
2022/12/30 10:26:39;;;;;;;;;;;;;;;11.08;100.00;98674.38;7359178;19;20031;-68
2022/12/30 10:29:12;;;;;;;;;;;;;;;11.11;99.95;98680.03;7361904;19;20283;-68
2022/12/30 10:31:39;;;;;;;;;;;;;;;11.12;100.00;98663.22;7359204;19;20712;-67
2022/12/30 10:34:12;;;;;;;;;;;;;;;11.13;100.00;98662.19;7360124;19;20448;-67
2022/12/30 10:36:39;;;;;;;;;;;;;;;11.13;100.00;98650.84;7358787;19;19930;-68
2022/12/30 10:39:13;;;;;;;;;;;;;;;11.13;100.00;98662.19;7359565;19;19947;-68
2022/12/30 10:41:50;;;;;;;;;;;;;;;11.19;100.00;98660.56;7357666;19;19963;-67
2022/12/30 10:44:21;;;;;;;;;;;;;;;11.23;100.00;98667.00;7359239;19;20738;-67
2022/12/30 10:46:55;;;;;;;;;;;;;;;11.27;100.00;98662.97;7357284;19;19914;-67
2022/12/30 10:49:29;;;;;;;;;;;;;;;11.28;100.00;98645.31;7360529;19;19951;-68
2022/12/30 10:51:56;;;;;;;;;;;;;;;11.28;100.00;98635.59;7353941;19;20501;-67
2022/12/30 10:54:23;;;;;;;;;;;;;;;11.29;100.00;98617.97;7361097;19;19922;-67
2022/12/30 10:56:50;;;;;;;;;;;;;;;11.34;100.00;98615.50;7357115;19;20594;-67
2022/12/30 10:59:20;;;;;;;;;;;;;;;11.35;100.00;98596.06;7357285;19;19927;-66
2022/12/30 11:01:48;;;;;;;;;;;;;;;11.38;100.00;98570.13;7355023;19;19923;-67
2022/12/30 11:04:25;;;;;;;;;;;;;;;11.40;100.00;98541.75;7357120;19;19919;-67
2022/12/30 11:07:02;;;;;;;;;;;;;;;11.43;100.00;98538.69;7358318;19;19922;-67
2022/12/30 11:09:28;;;;;;;;;;;;;;;11.49;100.00;98560.72;7358335;19;20016;-67
2022/12/30 11:15:02;;;;;;;;;;;;;;;11.62;100.00;98544.81;7357715;19;20271;-69
2022/12/30 11:17:33;;;;;;;;;;;;;;;11.68;100.00;98562.41;7359744;19;19925;-68
2022/12/30 11:20:04;;;;;;;;;;;;;;;11.73;100.00;98567.06;7357857;19;19930;-67
2022/12/30 11:22:31;;;;;;;;;;;;;;;11.76;100.00;98570.03;7354001;19;20517;-67
2022/12/30 11:24:58;;;;;;;;;;;;;;;11.83;100.00;98546.28;7356959;19;20301;-70
2022/12/30 11:27:29;;;;;;;;;;;;;;;11.89;100.00;98530.38;7359589;19;20042;-67
2022/12/30 11:29:56;;;;;;;;;;;;;;;11.97;100.00;98543.28;7355397;19;19922;-66
2022/12/30 11:32:23;;;;;;;;;;;;;;;12.03;100.00;98543.44;7356050;19;19919;-68
2022/12/30 11:34:49;;;;;;;;;;;;;;;12.09;100.00;98530.19;7356412;19;19922;-67
2022/12/30 11:37:23;;;;;;;;;;;;;;;12.16;100.00;98530.13;7356168;19;20531;-67
2022/12/30 11:39:50;;;;;;;;;;;;;;;12.20;100.00;98526.81;7357728;19;20545;-67
2022/12/30 11:42:27;;;;;;;;;;;;;;;12.25;100.00;98523.50;7356334;19;20055;-67
2022/12/30 11:45:12;;;;;;;;;;;;;;;12.30;100.00;98515.75;7355468;19;19929;-67
2022/12/30 11:47:43;;;;;;;;;;;;;;;12.34;100.00;98515.09;7356509;19;19925;-67
2022/12/30 11:50:17;;;;;;;;;;;;;;;12.40;100.00;98503.66;7355438;19;19972;-67
2022/12/30 11:52:49;;;;;;;;;;;;;;;12.45;100.00;98495.06;7358109;19;20309;-68
2022/12/30 11:55:22;;;;;;;;;;;;;;;12.54;100.00;98500.88;7358095;19;19926;-67
2022/12/30 11:57:50;;;;;;;;;;;;;;;12.60;100.00;98481.47;7358621;19;19915;-67
2022/12/30 12:00:26;;;;;;;;;;;;;;;12.65;100.00;98478.97;7356968;19;19926;-68
2022/12/30 12:02:59;;;;;;;;;;;;;;;12.70;100.00;98463.28;7356059;19;19926;-67
2022/12/30 12:05:29;;;;;;;;;;;;;;;12.76;100.00;98468.47;7353576;19;20010;-66
2022/12/30 12:07:59;;;;;;;;;;;;;;;12.82;100.00;98469.41;7357574;19;19926;-68
2022/12/30 12:10:31;;;;;;;;;;;;;;;12.91;100.00;98481.25;7357073;19;20351;-67
2022/12/30 12:13:01;;;;;;;;;;;;;;;12.97;100.00;98476.91;7359765;19;19919;-68
2022/12/30 12:15:35;;;;;;;;;;;;;;;13.02;100.00;98475.19;7357840;19;19923;-67
2022/12/30 12:18:10;;;;;;;;;;;;;;;13.09;100.00;98478.53;7360438;19;19957;-67
2022/12/30 12:20:47;;;;;;;;;;;;;;;13.15;100.00;98480.31;7354594;19;19922;-67
2022/12/30 12:23:14;;;;;;;;;;;;;;;13.22;100.00;98477.53;7355442;19;19917;-67
2022/12/30 12:25:46;;;;;;;;;;;;;;;13.27;100.00;98478.47;7356684;19;19921;-66
2022/12/30 12:28:13;;;;;;;;;;;;;;;13.34;100.00;98485.47;7355861;19;19926;-66
2022/12/30 12:30:49;;;;;;;;;;;;;;;13.41;100.00;98489.59;7355631;19;19922;-67
2022/12/30 12:33:16;;;;;;;;;;;;;;;13.47;100.00;98491.34;7355578;19;20464;-66
2022/12/30 12:35:46;;;;;;;;;;;;;;;13.52;100.00;98504.66;7354320;19;20590;-67
2022/12/30 12:38:22;;;;;;;;;;;;;;;13.59;100.00;98501.91;7354417;19;20401;-68
2022/12/30 12:40:49;;;;;;;;;;;;;;;13.63;100.00;98514.44;7356624;19;19923;-67
2022/12/30 12:43:26;;;;;;;;;;;;;;;13.67;100.00;98512.94;7357770;19;19926;-67
2022/12/30 12:46:05;;;;;;;;;;;;;;;13.77;100.00;98522.13;7358269;19;19935;-67
2022/12/30 12:48:41;;;;;;;;;;;;;;;13.81;100.00;98537.31;7355979;19;19922;-68
2022/12/30 12:51:08;;;;;;;;;;;;;;;13.84;100.00;98536.03;7353885;19;19919;-68
2022/12/30 12:53:35;;;;;;;;;;;;;;;13.87;100.00;98546.94;7354530;19;19929;-67
2022/12/30 12:56:02;;;;;;;;;;;;;;;13.92;100.00;98547.06;7353586;19;19919;-67
2022/12/30 12:58:40;;;;;;;;;;;;;;;13.98;100.00;98562.00;7353308;19;19930;-67
2022/12/30 13:01:08;;;;;;;;;;;;;;;14.01;100.00;98558.13;7353810;19;20215;-67
2022/12/30 13:03:40;;;;;;;;;;;;;;;14.04;100.00;98563.72;7356810;19;19934;-67
2022/12/30 13:06:17;;;;;;;;;;;;;;;14.07;100.00;98568.53;7349316;19;20254;-67
2022/12/30 13:08:53;;;;;;;;;;;;;;;14.10;100.00;98567.28;7355414;19;20022;-67
2022/12/30 13:11:27;;;;;;;;;;;;;;;14.12;100.00;98581.88;7356097;19;19967;-66
2022/12/30 13:14:06;;;;;;;;;;;;;;;14.17;100.00;98575.13;7355181;19;19919;-68
2022/12/30 13:16:37;;;;;;;;;;;;;;;14.21;100.00;98574.41;7353930;19;19918;-67
2022/12/30 13:19:04;;;;;;;;;;;;;;;14.24;100.00;98602.22;7357929;19;20324;-67
2022/12/30 13:21:31;;;;;;;;;;;;;;;14.26;99.43;98587.75;7349522;19;20240;-67
2022/12/30 13:24:03;;;;;;;;;;;;;;;14.28;98.74;98600.72;7355165;19;19923;-67
2022/12/30 13:26:30;;;;;;;;;;;;;;;14.28;98.55;98593.59;7357317;19;19910;-68
2022/12/30 13:28:58;;;;;;;;;;;;;;;14.28;97.93;98598.88;7354321;19;19931;-66
2022/12/30 13:31:26;;;;;;;;;;;;;;;14.30;97.67;98618.00;7353973;19;20312;-67
2022/12/30 13:33:56;;;;;;;;;;;;;;;14.28;97.27;98614.75;7352960;19;19941;-67
2022/12/30 13:36:29;;;;;;;;;;;;;;;14.29;97.29;98642.03;7349957;19;19922;-66
2022/12/30 13:38:56;;;;;;;;;;;;;;;14.31;97.21;98648.72;7350779;19;19921;-67
2022/12/30 13:41:31;;;;;;;;;;;;;;;14.32;96.65;98654.81;7355685;19;19926;-67
2022/12/30 13:44:00;;;;;;;;;;;;;;;14.33;96.71;98661.69;7355103;19;19922;-68
2022/12/30 13:46:29;;;;;;;;;;;;;;;14.34;96.55;98672.06;7355243;19;19938;-67
2022/12/30 13:48:56;;;;;;;;;;;;;;;14.34;96.24;98672.06;7352742;19;19923;-66
2022/12/30 13:51:24;;;;;;;;;;;;;;;14.36;96.32;98674.47;7349689;19;19923;-66